Time;durP1;ratioP1;P1;durP2;ratioP2;P2;SDS_P1;SDS_P2;PMS_P1;PMS_P2;Temp;Humidity;BMP_temperature;BMP_pressure;BME280_temperature;BME280_humidity;BME280_pressure;Samples;Min_cycle;Max_cycle;Signal;HPM_P1;HPM_P2
2022/09/04 00:01:04;;;;;;;3.80;1.80;;;;;;;17.40;82.55;100076.13;5032351;28;20037;-79
2022/09/04 00:03:57;;;;;;;4.07;1.88;;;;;;;17.33;83.05;100076.06;5058048;28;20047;-80
2022/09/04 00:06:33;;;;;;;3.63;1.50;;;;;;;17.33;83.16;100084.34;5074658;28;20039;-81
2022/09/04 00:09:13;;;;;;;3.30;1.50;;;;;;;17.37;82.61;100082.38;5073258;28;20475;-81
2022/09/04 00:11:48;;;;;;;4.03;1.90;;;;;;;17.31;82.49;100089.44;5074510;28;20123;-81
2022/09/04 00:14:18;;;;;;;4.75;1.92;;;;;;;17.17;82.58;100089.31;5074122;28;20035;-81
2022/09/04 00:16:46;;;;;;;4.03;1.83;;;;;;;17.28;82.52;100095.66;5073941;28;20093;-81
2022/09/04 00:19:22;;;;;;;4.55;1.98;;;;;;;17.32;82.51;100096.50;5073815;28;20119;-81
2022/09/04 00:22:03;;;;;;;4.18;1.92;;;;;;;17.31;82.48;100101.22;5073978;28;20040;-81
2022/09/04 00:24:36;;;;;;;3.50;1.50;;;;;;;17.27;82.67;100097.63;5074068;28;20020;-80
2022/09/04 00:27:12;;;;;;;4.07;1.85;;;;;;;17.18;83.16;100096.38;5072784;28;20028;-81
2022/09/04 00:30:02;;;;;;;4.00;1.80;;;;;;;17.06;83.50;100087.22;5074319;28;20027;-81
2022/09/04 00:33:18;;;;;;;3.80;1.83;;;;;;;16.92;84.19;100095.34;5074053;28;20084;-80
2022/09/04 00:35:56;;;;;;;3.65;1.88;;;;;;;16.84;84.65;100099.19;5061712;28;20545;-81
2022/09/04 00:38:21;;;;;;;4.82;2.35;;;;;;;16.85;84.61;100098.03;5073856;28;20111;-80
2022/09/04 00:41:12;;;;;;;4.00;1.77;;;;;;;16.83;84.67;100105.88;5073924;28;20107;-81
2022/09/04 00:44:14;;;;;;;3.45;1.65;;;;;;;16.80;84.76;100107.44;5073784;28;20020;-81
2022/09/04 00:47:05;;;;;;;4.75;1.90;;;;;;;16.70;85.04;100105.34;5073599;28;20029;-81
2022/09/04 00:49:49;;;;;;;3.38;1.60;;;;;;;16.58;85.76;100113.00;5073370;28;20036;-81
2022/09/04 00:52:47;;;;;;;6.57;2.33;;;;;;;16.49;86.08;100113.31;5073257;28;20039;-80
2022/09/04 00:55:37;;;;;;;3.75;1.60;;;;;;;16.46;86.13;100103.88;5073308;28;20067;-81
2022/09/04 00:58:22;;;;;;;4.25;1.95;;;;;;;16.50;85.77;100104.69;5073501;28;20032;-80
2022/09/04 01:00:48;;;;;;;4.15;1.83;;;;;;;16.62;85.36;100108.34;5073777;28;20042;-80
2022/09/04 01:03:16;;;;;;;;;;;;;;;16.57;85.48;100106.72;5073811;28;20028;-81
2022/09/04 01:06:00;;;;;;;4.45;1.80;;;;;;;16.53;85.62;100106.69;5073342;28;19946;-80
2022/09/04 01:09:03;;;;;;;3.50;1.70;;;;;;;16.52;85.93;100107.84;5072973;28;20040;-80
2022/09/04 01:11:28;;;;;;;4.00;1.60;;;;;;;16.55;85.73;100115.34;5073451;28;20379;-80
2022/09/04 01:14:28;;;;;;;4.37;1.90;;;;;;;16.60;85.38;100116.97;5072944;28;20025;-80
2022/09/04 01:17:28;;;;;;;3.40;1.63;;;;;;;16.67;85.10;100113.56;5073265;28;20115;-80
2022/09/04 01:20:13;;;;;;;3.75;1.73;;;;;;;16.72;85.22;100105.75;5073405;28;20078;-81
2022/09/04 01:23:02;;;;;;;4.00;1.88;;;;;;;16.73;84.85;100112.81;5073404;28;20035;-81
2022/09/04 01:26:05;;;;;;;3.22;1.42;;;;;;;16.74;84.86;100114.41;5073169;28;20025;-81
2022/09/04 01:29:06;;;;;;;3.38;1.60;;;;;;;16.75;84.80;100115.19;5073697;28;20029;-82
2022/09/04 01:32:05;;;;;;;3.45;1.67;;;;;;;16.84;84.31;100110.19;5073433;28;20025;-82
2022/09/04 01:34:49;;;;;;;4.47;2.08;;;;;;;16.78;84.52;100117.97;5073752;28;20460;-82
2022/09/04 01:37:43;;;;;;;4.90;1.95;;;;;;;16.70;84.72;100118.28;5074101;28;20115;-83
2022/09/04 01:40:39;;;;;;;3.10;1.60;;;;;;;16.66;85.02;100120.97;5073653;28;20028;-83
2022/09/04 01:43:11;;;;;;;3.80;1.80;;;;;;;16.63;85.28;100120.91;5073424;28;20056;-82
2022/09/04 01:46:06;;;;;;;4.30;1.98;;;;;;;16.64;85.20;100123.31;5072790;28;20090;-82
2022/09/04 01:48:50;;;;;;;3.83;1.60;;;;;;;16.68;85.06;100123.38;5073265;28;20044;-82
2022/09/04 01:51:22;;;;;;;3.78;1.55;;;;;;;16.70;84.89;100121.03;5072869;28;20024;-82
2022/09/04 01:54:01;;;;;;;3.58;1.50;;;;;;;16.79;84.73;100125.06;5072871;28;20033;-82
2022/09/04 01:56:44;;;;;;;3.65;1.83;;;;;;;16.55;85.60;100129.09;5072914;28;20364;-82
2022/09/04 01:59:27;;;;;;;3.45;1.50;;;;;;;16.52;86.04;100134.53;5072947;28;20028;-82
2022/09/04 02:02:18;;;;;;;3.72;1.90;;;;;;;16.54;86.01;100124.75;5071762;28;20032;-82
2022/09/04 02:05:06;;;;;;;3.53;1.67;;;;;;;16.53;86.00;100136.91;5072975;28;20048;-82
2022/09/04 02:07:39;;;;;;;3.38;1.67;;;;;;;16.57;85.76;100138.91;5062420;28;20040;-83
2022/09/04 02:10:34;;;;;;;3.42;1.60;;;;;;;16.56;85.96;100143.63;5072648;28;20029;-82
2022/09/04 02:13:33;;;;;;;3.20;1.60;;;;;;;16.52;86.08;100151.81;5073416;28;20024;-82
2022/09/04 02:16:13;;;;;;;2.97;1.45;;;;;;;16.61;85.41;100150.75;5072836;28;20024;-82
2022/09/04 02:19:23;;;;;;;3.17;1.30;;;;;;;16.53;85.99;100152.63;5072634;28;20024;-81
2022/09/04 02:22:05;;;;;;;2.85;1.40;;;;;;;16.52;86.38;100146.34;5060997;28;20036;-82
2022/09/04 02:24:51;;;;;;;3.15;1.42;;;;;;;16.56;86.19;100154.63;5072746;28;20050;-82
2022/09/04 02:27:33;;;;;;;3.00;1.38;;;;;;;16.53;86.30;100155.38;5071316;28;20352;-82
2022/09/04 02:30:09;;;;;;;3.28;1.58;;;;;;;16.54;86.03;100160.50;5072844;28;20029;-82
2022/09/04 02:32:47;;;;;;;3.95;1.60;;;;;;;16.58;86.06;100154.25;5072826;28;20032;-82
2022/09/04 02:35:25;;;;;;;3.55;1.60;;;;;;;16.51;86.18;100164.00;5072616;28;20025;-82
2022/09/04 02:38:08;;;;;;;3.28;1.70;;;;;;;16.67;85.31;100154.78;5072667;28;20498;-82
2022/09/04 02:40:56;;;;;;;3.25;1.50;;;;;;;16.58;86.15;100157.78;5072402;28;20472;-82
2022/09/04 02:43:22;;;;;;;4.15;1.55;;;;;;;16.62;85.99;100166.84;5075808;28;20123;-82
2022/09/04 02:45:47;;;;;;;;;;;;;;;16.58;85.87;100163.28;5076743;28;20108;-82
2022/09/04 02:48:27;;;;;;;3.17;1.40;;;;;;;16.63;85.86;100170.41;5076304;28;19912;-82
2022/09/04 02:51:19;;;;;;;3.67;1.60;;;;;;;16.61;86.23;100169.97;5074799;28;20037;-82
2022/09/04 02:54:13;;;;;;;3.88;1.70;;;;;;;16.66;85.73;100175.16;5075750;28;20051;-82
2022/09/04 02:56:51;;;;;;;5.55;1.60;;;;;;;16.54;86.56;100176.19;5076121;28;20044;-82
2022/09/04 02:59:35;;;;;;;3.38;1.73;;;;;;;16.54;86.71;100178.94;5075629;28;20593;-83
2022/09/04 03:02:03;;;;;;;4.57;1.80;;;;;;;16.50;86.87;100173.41;5074486;28;20071;-81
2022/09/04 03:04:48;;;;;;;3.47;1.65;;;;;;;16.59;86.60;100178.59;5075790;28;20055;-82
2022/09/04 03:07:39;;;;;;;3.50;1.50;;;;;;;16.85;84.77;100172.28;5075319;28;20449;-82
2022/09/04 03:10:16;;;;;;;5.15;1.73;;;;;;;16.95;84.77;100184.56;5075621;28;20032;-82
2022/09/04 03:12:50;;;;;;;;;;;;;;;17.07;84.06;100184.31;5076125;28;20551;-82
2022/09/04 03:15:33;;;;;;;3.78;1.80;;;;;;;16.94;84.63;100186.50;5075317;28;19909;-82
2022/09/04 03:18:16;;;;;;;3.70;1.77;;;;;;;16.91;84.83;100181.78;5075316;28;20036;-82
2022/09/04 03:20:53;;;;;;;4.00;1.73;;;;;;;16.78;85.39;100183.19;5073998;28;20036;-82
2022/09/04 03:23:26;;;;;;;3.58;1.63;;;;;;;16.88;85.04;100179.78;5073836;28;20467;-82
2022/09/04 03:26:25;;;;;;;4.05;1.80;;;;;;;16.85;85.46;100180.53;5075355;28;20119;-82
2022/09/04 03:29:15;;;;;;;3.60;1.55;;;;;;;16.81;85.23;100186.00;5074828;28;20491;-81
2022/09/04 03:32:06;;;;;;;3.55;1.65;;;;;;;16.70;85.93;100184.28;5074940;28;20035;-82
2022/09/04 03:34:36;;;;;;;5.35;1.73;;;;;;;16.70;85.95;100181.53;5075350;28;20091;-81
2022/09/04 03:37:38;;;;;;;3.65;1.65;;;;;;;16.74;85.60;100191.41;5075501;28;20082;-82
2022/09/04 03:40:36;;;;;;;4.00;2.15;;;;;;;16.73;85.42;100189.03;5075123;28;20467;-81
2022/09/04 03:43:25;;;;;;;3.50;1.70;;;;;;;16.66;85.61;100192.44;5074712;28;20478;-81
2022/09/04 03:46:28;;;;;;;3.90;1.70;;;;;;;16.68;85.69;100189.34;5074471;28;20028;-80
2022/09/04 03:49:12;;;;;;;4.10;1.80;;;;;;;16.64;85.82;100194.00;5074259;28;20386;-79
2022/09/04 03:51:49;;;;;;;4.15;1.70;;;;;;;16.72;85.40;100195.69;5073189;28;20488;-80
2022/09/04 03:54:36;;;;;;;3.72;1.52;;;;;;;16.66;85.41;100197.94;5073992;28;20048;-81
2022/09/04 03:57:20;;;;;;;4.40;2.13;;;;;;;16.62;84.81;100204.53;5074410;28;20407;-80
2022/09/04 03:59:51;;;;;;;4.40;1.90;;;;;;;16.67;85.61;100204.28;5074867;28;20055;-80
2022/09/04 04:02:28;;;;;;;3.42;1.50;;;;;;;16.64;85.46;100203.03;5072912;28;20112;-80
2022/09/04 04:05:35;;;;;;;3.80;1.60;;;;;;;16.46;86.00;100210.22;5074163;28;20048;-81
2022/09/04 04:08:26;;;;;;;3.80;1.87;;;;;;;16.29;86.29;100210.78;5072802;28;20522;-82
2022/09/04 04:11:30;;;;;;;4.60;1.88;;;;;;;16.42;86.27;100212.94;5072816;28;20465;-81
2022/09/04 04:14:10;;;;;;;3.85;1.98;;;;;;;16.38;86.02;100209.34;5073740;28;20033;-81
2022/09/04 04:17:09;;;;;;;5.78;1.73;;;;;;;16.44;85.34;100207.06;5073929;28;20123;-81
2022/09/04 04:19:41;;;;;;;4.00;1.73;;;;;;;16.34;86.02;100211.25;5073618;28;20094;-81
2022/09/04 04:22:34;;;;;;;3.28;1.60;;;;;;;16.52;85.43;100206.81;5073822;28;20035;-81
2022/09/04 04:25:05;;;;;;;3.33;1.58;;;;;;;16.44;85.16;100210.59;5073891;28;20085;-81
2022/09/04 04:27:51;;;;;;;3.80;1.75;;;;;;;16.52;85.42;100209.53;5073726;28;20094;-81
2022/09/04 04:30:18;;;;;;;3.65;1.60;;;;;;;16.55;84.99;100208.78;5073265;28;20032;-81
2022/09/04 04:33:01;;;;;;;4.38;1.77;;;;;;;16.29;85.91;100210.78;5073217;28;20032;-81
2022/09/04 04:35:57;;;;;;;4.93;2.13;;;;;;;16.36;85.50;100211.69;5072139;28;20162;-81
2022/09/04 04:38:38;;;;;;;3.72;1.92;;;;;;;16.12;86.15;100223.06;5073515;28;20064;-81
2022/09/04 04:41:09;;;;;;;4.22;2.00;;;;;;;15.98;86.91;100228.38;5073352;28;20028;-81
2022/09/04 04:43:50;;;;;;;3.20;1.50;;;;;;;15.93;87.54;100223.97;5073435;28;20111;-81
2022/09/04 04:46:21;;;;;;;3.50;1.90;;;;;;;15.89;87.21;100226.66;5073280;28;20099;-81
2022/09/04 04:48:58;;;;;;;4.68;1.85;;;;;;;15.83;87.84;100230.09;5073538;28;20096;-81
2022/09/04 04:51:41;;;;;;;3.92;1.95;;;;;;;15.79;87.69;100230.03;5072009;28;20036;-81
2022/09/04 04:54:33;;;;;;;3.80;1.70;;;;;;;16.13;86.99;100246.66;5073279;28;20052;-81
2022/09/04 04:57:09;;;;;;;3.95;1.90;;;;;;;16.03;87.08;100245.31;5073282;28;20483;-82
2022/09/04 05:00:18;;;;;;;4.07;1.80;;;;;;;15.91;87.50;100251.00;5073041;28;20033;-81
2022/09/04 05:03:02;;;;;;;5.18;2.00;;;;;;;15.85;88.03;100252.47;5072324;28;20086;-81
2022/09/04 05:05:48;;;;;;;3.92;1.70;;;;;;;16.27;86.78;100246.84;5071938;28;20044;-81
2022/09/04 05:08:26;;;;;;;4.45;2.20;;;;;;;16.34;86.33;100249.72;5072919;28;20074;-81
2022/09/04 05:11:06;;;;;;;4.78;2.17;;;;;;;16.32;86.89;100249.31;5073076;28;20029;-81
2022/09/04 05:13:39;;;;;;;5.95;2.13;;;;;;;16.29;86.32;100251.97;5072670;28;20388;-81
2022/09/04 05:17:01;;;;;;;4.63;2.05;;;;;;;16.07;87.46;100261.84;5071704;28;20055;-81
2022/09/04 05:19:45;;;;;;;4.13;1.92;;;;;;;16.30;86.95;100261.84;5050269;28;20120;-81
2022/09/04 05:22:19;;;;;;;4.50;2.00;;;;;;;16.40;86.19;100266.69;5050349;28;20059;-81
2022/09/04 05:24:58;;;;;;;4.30;2.08;;;;;;;16.39;86.13;100276.88;5067651;28;20036;-81
2022/09/04 05:28:01;;;;;;;5.20;2.55;;;;;;;16.28;85.95;100284.16;5072474;28;20063;-81
2022/09/04 05:30:51;;;;;;;4.22;2.13;;;;;;;16.27;86.25;100290.81;5072380;28;20107;-81
2022/09/04 05:33:36;;;;;;;3.90;1.90;;;;;;;16.44;85.73;100289.50;5072615;28;20055;-80
2022/09/04 05:36:42;;;;;;;7.80;3.10;;;;;;;16.32;85.80;100298.78;5071522;28;20024;-80
2022/09/04 05:39:26;;;;;;;4.93;2.55;;;;;;;16.28;86.09;100303.41;5054318;28;20041;-80
2022/09/04 05:41:54;;;;;;;4.57;2.10;;;;;;;16.22;86.03;100307.63;5072682;28;20036;-80
2022/09/04 05:44:41;;;;;;;3.55;1.90;;;;;;;16.12;86.11;100313.72;5072478;28;20036;-80
2022/09/04 05:47:32;;;;;;;4.68;2.20;;;;;;;15.86;88.04;100319.97;5072947;28;20029;-81
2022/09/04 05:50:40;;;;;;;5.32;2.22;;;;;;;16.01;87.82;100330.03;5072418;28;20036;-80
2022/09/04 05:54:03;;;;;;;6.88;3.30;;;;;;;16.31;86.34;100318.38;5071129;28;20032;-82
2022/09/04 05:56:44;;;;;;;4.60;1.95;;;;;;;16.35;86.16;100320.00;5050042;28;20041;-80
2022/09/04 05:59:34;;;;;;;5.22;2.30;;;;;;;16.43;86.06;100326.41;5050249;28;20192;-80
2022/09/04 06:02:12;;;;;;;3.60;1.90;;;;;;;16.37;86.30;100325.13;5069519;28;20064;-80
2022/09/04 06:04:49;;;;;;;4.13;1.85;;;;;;;16.36;86.31;100331.78;5072464;28;20047;-84
2022/09/04 06:07:43;;;;;;;4.20;2.10;;;;;;;16.63;85.34;100338.09;5071754;28;20033;-83
2022/09/04 06:10:15;;;;;;;4.80;2.50;;;;;;;16.71;85.44;100342.56;5072545;28;20021;-83
2022/09/04 06:13:12;;;;;;;4.32;2.30;;;;;;;16.79;85.04;100349.75;5072863;28;20363;-83
2022/09/04 06:15:43;;;;;;;4.65;1.90;;;;;;;16.80;84.50;100340.38;5073199;28;20028;-82
2022/09/04 06:18:21;;;;;;;4.82;2.20;;;;;;;16.96;84.29;100343.69;5076077;28;20043;-82
2022/09/04 06:20:52;;;;;;;4.80;2.13;;;;;;;16.98;84.26;100341.41;5076069;28;20036;-82
2022/09/04 06:23:53;;;;;;;3.78;1.73;;;;;;;17.06;84.09;100340.31;5075865;28;20115;-83
2022/09/04 06:26:44;;;;;;;6.00;1.92;;;;;;;17.12;83.87;100347.06;5075757;28;20035;-82
2022/09/04 06:29:40;;;;;;;4.47;2.05;;;;;;;17.01;84.44;100356.38;5074741;28;20033;-83
2022/09/04 06:32:34;;;;;;;4.45;1.85;;;;;;;17.00;83.95;100354.78;5076138;28;20032;-82
2022/09/04 06:35:16;;;;;;;3.70;1.77;;;;;;;17.05;83.91;100351.69;5076366;28;20051;-83
2022/09/04 06:38:00;;;;;;;3.72;1.88;;;;;;;17.32;82.99;100353.25;5075073;28;20368;-82
2022/09/04 06:40:56;;;;;;;5.13;2.10;;;;;;;17.55;82.95;100357.81;5076340;28;20386;-81
2022/09/04 06:43:58;;;;;;;3.83;1.85;;;;;;;17.68;82.09;100354.47;5075906;28;20028;-80
2022/09/04 06:46:37;;;;;;;4.63;2.10;;;;;;;17.50;83.28;100358.16;5075832;28;20032;-82
2022/09/04 06:49:34;;;;;;;5.07;2.40;;;;;;;17.72;82.68;100358.06;5075799;28;20419;-82
2022/09/04 06:52:13;;;;;;;4.53;2.25;;;;;;;17.49;83.41;100349.13;5076378;28;20028;-83
2022/09/04 06:54:57;;;;;;;4.38;2.10;;;;;;;17.64;82.98;100361.88;5075529;28;20443;-84
2022/09/04 06:57:40;;;;;;;4.40;2.00;;;;;;;17.94;81.92;100358.28;5078392;28;20100;-85
2022/09/04 07:00:16;;;;;;;3.80;1.80;;;;;;;18.10;81.68;100353.31;5079092;28;20032;-83
2022/09/04 07:02:59;;;;;;;4.45;1.60;;;;;;;18.23;81.18;100364.84;5077964;28;20112;-86
2022/09/04 07:05:43;;;;;;;3.72;1.92;;;;;;;18.02;81.75;100366.25;5077925;28;20052;-85
2022/09/04 07:08:29;;;;;;;3.85;1.60;;;;;;;17.99;82.17;100367.00;5078401;28;20029;-85
2022/09/04 07:11:20;;;;;;;3.30;1.40;;;;;;;18.50;79.43;100369.03;5081234;28;20036;-84
2022/09/04 07:13:53;;;;;;;3.38;1.70;;;;;;;18.51;79.23;100367.84;5088077;28;20032;-85
2022/09/04 07:16:43;;;;;;;3.10;1.65;;;;;;;18.50;79.65;100368.25;5085823;28;20024;-89
2022/09/04 07:19:23;;;;;;;7.00;2.78;;;;;;;18.63;79.36;100373.06;5079662;28;20051;-84
2022/09/04 07:22:37;;;;;;;3.80;1.55;;;;;;;18.73;78.55;100379.84;5080712;28;20026;-92
2022/09/04 07:25:43;;;;;;;3.80;1.55;;;;;;;18.92;77.92;100376.81;5078639;28;20062;-88
2022/09/04 07:28:31;;;;;;;3.88;1.52;;;;;;;18.92;76.92;100378.81;5083634;28;20039;-87
2022/09/04 07:31:19;;;;;;;3.10;1.50;;;;;;;19.02;76.25;100378.09;5083460;28;20035;-88
2022/09/04 07:34:01;;;;;;;3.47;1.42;;;;;;;19.10;76.65;100376.16;5084404;28;20032;-90
2022/09/04 07:36:40;;;;;;;3.03;1.35;;;;;;;19.26;76.01;100376.63;5085557;28;20082;-92
2022/09/04 07:39:18;;;;;;;3.50;1.40;;;;;;;19.31;75.63;100381.75;5082040;28;20054;-87
2022/09/04 07:41:56;;;;;;;3.80;1.48;;;;;;;19.36;75.31;100392.47;5081316;28;20024;-90
2022/09/04 07:44:35;;;;;;;4.90;1.85;;;;;;;19.46;75.47;100394.47;5083992;28;20028;-90
2022/09/04 07:47:16;;;;;;;3.60;1.83;;;;;;;19.42;75.17;100390.09;5085290;28;20039;-88
2022/09/04 07:49:59;;;;;;;3.85;1.40;;;;;;;19.58;74.34;100392.56;5080837;28;20506;-90
2022/09/04 07:52:49;;;;;;;3.22;1.45;;;;;;;19.66;74.50;100402.47;5077815;28;20425;-85
2022/09/04 07:55:40;;;;;;;4.47;1.80;;;;;;;19.88;74.28;100406.88;5066523;28;20040;-84
2022/09/04 07:58:08;;;;;;;2.60;1.20;;;;;;;20.05;73.80;100410.88;5081449;28;20502;-85
2022/09/04 08:01:02;;;;;;;3.63;1.60;;;;;;;20.01;73.49;100410.88;5084191;28;20107;-86
2022/09/04 08:03:52;;;;;;;3.22;1.33;;;;;;;19.98;74.07;100414.41;5082361;28;20039;-85
2022/09/04 08:06:44;;;;;;;3.03;1.25;;;;;;;20.12;73.43;100419.97;5081798;28;20043;-89
2022/09/04 08:09:36;;;;;;;3.85;1.60;;;;;;;20.26;72.67;100415.66;5077808;28;20037;-83
2022/09/04 08:12:55;;;;;;;2.97;1.35;;;;;;;20.18;73.07;100425.13;5072599;28;20040;-88
2022/09/04 08:15:41;;;;;;;;;;;;;;;20.40;72.99;100423.97;5071136;28;20036;-88
2022/09/04 08:18:20;;;;;;;3.90;1.60;;;;;;;20.34;72.83;100429.09;5080269;28;19912;-88
2022/09/04 08:20:58;;;;;;;3.22;1.40;;;;;;;20.43;72.36;100424.00;5078442;28;20520;-86
2022/09/04 08:23:32;;;;;;;3.65;1.33;;;;;;;20.39;72.71;100425.94;5083067;28;20035;-86
2022/09/04 08:26:02;;;;;;;3.55;1.52;;;;;;;20.31;72.79;100432.63;5080323;28;20100;-84
2022/09/04 08:28:55;;;;;;;4.18;1.73;;;;;;;20.53;72.31;100430.72;5083806;28;20032;-86
2022/09/04 08:31:46;;;;;;;4.50;2.00;;;;;;;20.73;71.26;100425.59;5085720;28;20033;-86
2022/09/04 08:34:18;;;;;;;3.30;1.50;;;;;;;20.83;71.22;100437.84;5084155;28;20028;-84
2022/09/04 08:37:12;;;;;;;3.15;1.42;;;;;;;20.79;71.32;100440.59;5081801;28;20032;-88
2022/09/04 08:40:03;;;;;;;3.13;1.38;;;;;;;21.03;70.33;100431.50;5080741;28;20021;-83
2022/09/04 08:43:07;;;;;;;3.45;1.60;;;;;;;21.18;70.35;100435.03;5079389;28;20079;-87
2022/09/04 08:45:37;;;;;;;4.32;1.58;;;;;;;21.19;70.05;100436.59;5078091;28;20471;-87
2022/09/04 08:48:17;;;;;;;3.20;1.50;;;;;;;21.49;68.57;100435.34;5079586;28;20047;-86
2022/09/04 08:51:28;;;;;;;3.80;1.70;;;;;;;21.43;69.28;100436.97;5078737;28;20466;-86
2022/09/04 08:54:07;;;;;;;3.28;1.48;;;;;;;21.69;68.01;100427.38;5075744;28;20024;-85
2022/09/04 08:57:00;;;;;;;3.42;1.45;;;;;;;21.83;67.95;100432.81;5076180;28;20536;-87
2022/09/04 08:59:28;;;;;;;3.10;1.42;;;;;;;;;;5078516;28;20020;-85
2022/09/04 09:02:21;;;;;;;3.40;1.50;;;;;;;21.79;67.97;100435.63;5084606;28;20096;-84
2022/09/04 09:05:04;;;;;;;2.95;1.23;;;;;;;21.93;67.55;100443.09;5074633;28;20068;-86
2022/09/04 09:07:48;;;;;;;2.90;1.30;;;;;;;22.34;65.62;100439.69;5074471;28;20497;-87
2022/09/04 09:10:39;;;;;;;2.75;1.25;;;;;;;22.25;65.48;100445.72;5074280;28;20128;-87
2022/09/04 09:13:35;;;;;;;2.75;1.08;;;;;;;21.98;66.26;100445.44;5074447;28;20048;-85
2022/09/04 09:16:20;;;;;;;3.05;1.30;;;;;;;22.07;65.42;100445.03;5074866;28;20064;-85
2022/09/04 09:19:04;;;;;;;2.88;1.38;;;;;;;21.99;65.70;100440.66;5075143;28;20040;-87
2022/09/04 09:21:36;;;;;;;2.72;1.20;;;;;;;21.99;66.16;100451.75;5076506;28;20029;-86
2022/09/04 09:24:08;;;;;;;2.60;1.30;;;;;;;22.03;66.12;100447.00;5075057;28;20040;-87
2022/09/04 09:26:59;;;;;;;2.92;1.10;;;;;;;22.19;65.25;100445.34;5075161;28;20033;-85
2022/09/04 09:29:36;;;;;;;3.05;1.30;;;;;;;22.18;65.85;100446.56;5070328;28;20463;-87
2022/09/04 09:32:14;;;;;;;3.58;1.42;;;;;;;22.34;64.96;100445.25;5074717;28;20063;-88
2022/09/04 09:35:21;;;;;;;2.97;1.50;;;;;;;22.43;64.20;100442.81;5077258;28;20025;-86
2022/09/04 09:38:23;;;;;;;3.40;1.17;;;;;;;22.48;64.62;100439.59;5065676;28;20048;-86
2022/09/04 09:41:11;;;;;;;3.88;1.23;;;;;;;22.49;64.59;100441.16;5074217;28;20040;-88
2022/09/04 09:44:02;;;;;;;3.55;1.33;;;;;;;22.44;64.10;100436.84;5075762;28;20111;-86
2022/09/04 09:47:00;;;;;;;3.28;1.38;;;;;;;22.62;64.33;100441.47;5075181;28;20035;-85
2022/09/04 09:50:05;;;;;;;3.50;1.50;;;;;;;22.52;65.25;100443.94;5079551;28;20028;-85
2022/09/04 09:52:38;;;;;;;2.83;1.20;;;;;;;22.85;62.91;100443.72;5061161;28;20353;-89
2022/09/04 09:55:37;;;;;;;2.78;1.33;;;;;;;22.73;64.02;100439.41;5078305;28;20039;-89
2022/09/04 09:58:36;;;;;;;2.95;1.20;;;;;;;22.75;63.00;100442.56;5079378;28;20044;-88
2022/09/04 10:01:11;;;;;;;2.83;1.23;;;;;;;22.91;63.11;100434.53;5077474;28;20031;-87
2022/09/04 10:03:48;;;;;;;3.63;1.55;;;;;;;23.14;62.78;100444.22;5077328;28;20037;-88
2022/09/04 10:06:30;;;;;;;3.38;1.50;;;;;;;23.05;62.29;100445.50;5078566;28;20060;-89
2022/09/04 10:09:22;;;;;;;2.83;1.20;;;;;;;22.96;62.15;100439.63;5076890;28;20028;-88
2022/09/04 10:12:19;;;;;;;4.35;1.30;;;;;;;22.83;62.49;100441.31;5078917;28;20032;-89
2022/09/04 10:15:05;;;;;;;3.08;1.42;;;;;;;22.91;62.61;100439.28;5074779;28;20500;-88
2022/09/04 10:18:03;;;;;;;3.63;1.40;;;;;;;23.17;61.70;100440.59;5081368;28;20039;-87
2022/09/04 10:20:48;;;;;;;2.85;1.30;;;;;;;23.26;60.69;100435.38;5083946;28;20084;-88
2022/09/04 10:23:24;;;;;;;2.08;1.10;;;;;;;23.58;60.36;100444.16;5077457;28;20101;-88
2022/09/04 10:26:38;;;;;;;3.17;1.35;;;;;;;23.46;59.38;100439.09;5077588;28;20051;-86
2022/09/04 10:29:35;;;;;;;4.70;2.25;;;;;;;23.30;59.32;100438.88;5076620;28;20474;-85
2022/09/04 10:32:00;;;;;;;3.45;1.80;;;;;;;23.55;59.14;100449.72;5076966;28;20028;-85
2022/09/04 10:34:56;;;;;;;2.77;1.20;;;;;;;23.48;60.27;100449.81;5076224;28;20036;-86
2022/09/04 10:37:45;;;;;;;2.17;1.07;;;;;;;23.59;59.42;100445.72;5076255;28;20035;-86
2022/09/04 10:40:37;;;;;;;3.28;1.45;;;;;;;23.52;60.20;100445.00;5076069;28;20068;-86
2022/09/04 10:43:07;;;;;;;3.42;1.40;;;;;;;23.49;59.51;100448.59;5075831;28;20135;-86
2022/09/04 10:45:40;;;;;;;4.85;1.75;;;;;;;23.40;60.17;100449.09;5077118;28;20025;-86
2022/09/04 10:48:33;;;;;;;2.60;1.17;;;;;;;23.82;58.47;100444.25;5076661;28;20068;-85
2022/09/04 10:51:20;;;;;;;3.10;1.38;;;;;;;23.93;57.65;100442.13;5074829;28;20036;-86
2022/09/04 10:54:20;;;;;;;21.33;14.50;;;;;;;23.88;59.13;100445.38;5076241;28;20029;-85
2022/09/04 10:57:03;;;;;;;8.75;4.45;;;;;;;23.80;58.67;100436.31;5077691;28;20039;-86
2022/09/04 11:00:01;;;;;;;8.63;5.05;;;;;;;24.11;57.95;100450.22;5077012;28;20483;-84
2022/09/04 11:03:03;;;;;;;4.30;2.03;;;;;;;24.30;57.07;100442.00;5058843;28;20064;-85
2022/09/04 11:05:47;;;;;;;4.15;1.88;;;;;;;23.99;57.99;100435.66;5083133;28;20075;-85
2022/09/04 11:08:26;;;;;;;3.83;1.48;;;;;;;24.18;57.94;100439.78;5081894;28;20044;-87
2022/09/04 11:11:07;;;;;;;3.78;1.63;;;;;;;24.02;57.85;100442.41;5081654;28;20037;-84
2022/09/04 11:14:05;;;;;;;3.55;1.48;;;;;;;24.14;57.67;100441.03;5081858;28;20032;-89
2022/09/04 11:16:55;;;;;;;3.78;1.40;;;;;;;24.18;56.52;100437.00;5070445;28;20104;-91
2022/09/04 11:19:48;;;;;;;3.33;1.40;;;;;;;24.38;56.06;100439.16;5082193;28;20028;-88
2022/09/04 11:22:43;;;;;;;2.67;1.20;;;;;;;24.44;55.78;100437.44;5080560;28;20040;-89
2022/09/04 11:25:43;;;;;;;2.90;1.20;;;;;;;24.32;55.12;100444.38;5075554;28;20059;-83
2022/09/04 11:28:26;;;;;;;3.60;1.42;;;;;;;24.72;54.72;100439.78;5076874;28;20033;-84
2022/09/04 11:31:12;;;;;;;2.97;1.25;;;;;;;24.92;54.52;100442.63;5075576;28;20064;-82
2022/09/04 11:34:02;;;;;;;4.18;1.52;;;;;;;25.20;53.66;100438.56;5075081;28;20028;-82
2022/09/04 11:36:51;;;;;;;2.70;1.20;;;;;;;25.32;53.52;100434.34;5075428;28;20086;-85
2022/09/04 11:39:54;;;;;;;2.90;1.40;;;;;;;24.67;55.71;100440.25;5077213;28;20032;-82
2022/09/04 11:42:26;;;;;;;3.55;1.30;;;;;;;24.50;55.51;100442.09;5074609;28;20040;-82
2022/09/04 11:45:06;;;;;;;2.97;1.40;;;;;;;24.39;55.37;100435.16;5074657;28;20025;-82
2022/09/04 11:47:32;;;;;;;3.05;1.30;;;;;;;24.38;55.34;100439.94;5074366;28;20029;-82
2022/09/04 11:50:26;;;;;;;3.10;1.33;;;;;;;24.35;55.01;100437.19;5075728;28;20127;-83
2022/09/04 11:53:13;;;;;;;3.38;1.42;;;;;;;24.28;55.37;100433.28;5072428;28;20115;-82
2022/09/04 11:55:54;;;;;;;5.05;1.70;;;;;;;24.56;55.18;100434.09;5075862;28;20119;-84
2022/09/04 11:58:40;;;;;;;5.20;1.85;;;;;;;24.10;56.49;100441.09;5086091;28;20029;-87
2022/09/04 12:01:38;;;;;;;4.57;2.30;;;;;;;24.00;56.78;100442.03;5086466;28;20127;-87
2022/09/04 12:04:33;;;;;;;4.10;1.50;;;;;;;24.05;56.84;100446.34;5075532;28;20044;-88
2022/09/04 12:07:24;;;;;;;3.17;1.50;;;;;;;23.96;56.41;100438.50;5077039;28;20029;-87
2022/09/04 12:10:08;;;;;;;3.45;1.45;;;;;;;24.23;55.43;100444.88;5077913;28;20119;-85
2022/09/04 12:13:02;;;;;;;3.30;1.45;;;;;;;24.43;53.61;100442.22;5080667;28;20028;-88
2022/09/04 12:15:58;;;;;;;2.70;1.30;;;;;;;24.50;53.34;100447.66;5095344;28;20170;-86
2022/09/04 12:18:37;;;;;;;3.17;1.38;;;;;;;24.74;52.96;100442.94;5096792;28;20036;-86
2022/09/04 12:21:29;;;;;;;2.90;1.40;;;;;;;25.01;52.08;100442.09;5090955;28;20040;-84
2022/09/04 12:24:34;;;;;;;4.78;1.40;;;;;;;24.91;51.47;100438.25;5084717;28;20028;-87
2022/09/04 12:27:27;;;;;;;3.65;1.30;;;;;;;24.81;52.42;100451.16;5089469;28;20523;-90
2022/09/04 12:30:28;;;;;;;2.85;1.17;;;;;;;24.86;52.08;100459.03;5081716;28;20032;-89
2022/09/04 12:33:18;;;;;;;3.08;1.27;;;;;;;24.81;52.88;100440.00;5066306;28;20044;-88
2022/09/04 12:36:16;;;;;;;3.55;1.20;;;;;;;25.12;51.09;100448.25;5086505;28;20076;-89
2022/09/04 12:39:24;;;;;;;4.40;2.00;;;;;;;24.94;52.12;100440.19;5084233;28;20123;-92
2022/09/04 12:42:14;;;;;;;8.38;5.15;;;;;;;25.27;52.45;100446.78;5093236;28;20036;-85
2022/09/04 12:45:03;;;;;;;5.15;1.42;;;;;;;25.73;49.30;100445.13;5091904;28;20028;-85
2022/09/04 12:48:08;;;;;;;3.42;1.33;;;;;;;25.33;50.86;100445.06;5093164;28;20099;-85
2022/09/04 12:50:36;;;;;;;2.42;1.10;;;;;;;25.18;50.85;100440.97;5081963;28;20088;-85
2022/09/04 12:53:30;;;;;;;4.35;1.50;;;;;;;25.60;50.49;100438.56;5094128;28;20063;-86
2022/09/04 12:55:59;;;;;;;3.17;1.20;;;;;;;26.34;48.90;100431.38;5089943;28;20052;-90